sensor_id;sensor_type;location;lat;lon;timestamp;P1;durP1;ratioP1;P2;durP2;ratioP2
35847;SDS011;22332;51.954;20.118;2023-03-23T00:00:07;29.40;;;19.80;;
35847;SDS011;22332;51.954;20.118;2023-03-23T00:03:33;37.80;;;23.10;;
35847;SDS011;22332;51.954;20.118;2023-03-23T00:06:39;37.70;;;24.40;;
35847;SDS011;22332;51.954;20.118;2023-03-23T00:09:45;34.50;;;23.60;;
35847;SDS011;22332;51.954;20.118;2023-03-23T00:12:50;34.90;;;23.30;;
35847;SDS011;22332;51.954;20.118;2023-03-23T00:15:56;36.20;;;22.40;;
35847;SDS011;22332;51.954;20.118;2023-03-23T00:19:02;35.70;;;23.00;;
35847;SDS011;22332;51.954;20.118;2023-03-23T00:22:09;33.70;;;21.50;;
35847;SDS011;22332;51.954;20.118;2023-03-23T00:25:15;28.70;;;18.70;;
35847;SDS011;22332;51.954;20.118;2023-03-23T00:28:21;37.60;;;23.40;;
35847;SDS011;22332;51.954;20.118;2023-03-23T00:31:27;34.40;;;21.90;;
35847;SDS011;22332;51.954;20.118;2023-03-23T00:34:35;33.40;;;22.40;;
35847;SDS011;22332;51.954;20.118;2023-03-23T00:37:41;32.70;;;22.70;;
35847;SDS011;22332;51.954;20.118;2023-03-23T00:40:46;35.10;;;23.00;;
35847;SDS011;22332;51.954;20.118;2023-03-23T00:43:52;35.20;;;23.50;;
35847;SDS011;22332;51.954;20.118;2023-03-23T00:46:58;31.50;;;19.60;;
35847;SDS011;22332;51.954;20.118;2023-03-23T00:50:05;28.30;;;17.60;;
35847;SDS011;22332;51.954;20.118;2023-03-23T00:53:12;30.70;;;19.90;;
35847;SDS011;22332;51.954;20.118;2023-03-23T00:56:18;30.30;;;20.10;;
35847;SDS011;22332;51.954;20.118;2023-03-23T00:59:23;29.80;;;20.20;;
35847;SDS011;22332;51.954;20.118;2023-03-23T01:02:29;32.50;;;22.40;;
35847;SDS011;22332;51.954;20.118;2023-03-23T01:05:35;31.10;;;21.10;;
35847;SDS011;22332;51.954;20.118;2023-03-23T01:08:42;32.40;;;22.50;;
35847;SDS011;22332;51.954;20.118;2023-03-23T01:11:49;29.40;;;18.80;;
35847;SDS011;22332;51.954;20.118;2023-03-23T01:14:58;29.00;;;18.10;;
35847;SDS011;22332;51.954;20.118;2023-03-23T01:18:04;30.90;;;20.70;;
35847;SDS011;22332;51.954;20.118;2023-03-23T01:21:10;30.40;;;21.00;;
35847;SDS011;22332;51.954;20.118;2023-03-23T01:24:18;30.50;;;20.90;;
35847;SDS011;22332;51.954;20.118;2023-03-23T01:27:23;29.40;;;21.20;;
35847;SDS011;22332;51.954;20.118;2023-03-23T01:30:29;36.00;;;22.00;;
35847;SDS011;22332;51.954;20.118;2023-03-23T01:33:35;29.90;;;21.00;;
35847;SDS011;22332;51.954;20.118;2023-03-23T01:36:40;26.60;;;18.30;;
35847;SDS011;22332;51.954;20.118;2023-03-23T01:39:46;25.10;;;16.60;;
35847;SDS011;22332;51.954;20.118;2023-03-23T01:42:52;29.90;;;19.00;;
35847;SDS011;22332;51.954;20.118;2023-03-23T01:45:57;27.80;;;19.60;;
35847;SDS011;22332;51.954;20.118;2023-03-23T01:49:03;27.60;;;19.20;;
35847;SDS011;22332;51.954;20.118;2023-03-23T01:52:13;26.80;;;18.70;;
35847;SDS011;22332;51.954;20.118;2023-03-23T01:55:25;28.70;;;18.50;;
35847;SDS011;22332;51.954;20.118;2023-03-23T01:58:32;28.20;;;19.60;;
35847;SDS011;22332;51.954;20.118;2023-03-23T02:01:40;26.80;;;16.70;;
35847;SDS011;22332;51.954;20.118;2023-03-23T02:04:48;24.60;;;15.50;;
35847;SDS011;22332;51.954;20.118;2023-03-23T02:07:54;25.40;;;17.30;;
35847;SDS011;22332;51.954;20.118;2023-03-23T02:11:12;26.10;;;16.80;;
35847;SDS011;22332;51.954;20.118;2023-03-23T02:14:19;24.70;;;17.20;;
35847;SDS011;22332;51.954;20.118;2023-03-23T02:17:27;24.30;;;16.80;;
35847;SDS011;22332;51.954;20.118;2023-03-23T02:28:15;23.10;;;14.50;;
35847;SDS011;22332;51.954;20.118;2023-03-23T02:31:51;23.40;;;14.70;;
35847;SDS011;22332;51.954;20.118;2023-03-23T02:35:10;22.40;;;14.90;;
35847;SDS011;22332;51.954;20.118;2023-03-23T02:38:23;21.10;;;15.10;;
35847;SDS011;22332;51.954;20.118;2023-03-23T02:41:36;22.80;;;15.40;;
35847;SDS011;22332;51.954;20.118;2023-03-23T02:44:44;23.40;;;14.80;;
35847;SDS011;22332;51.954;20.118;2023-03-23T02:47:53;21.80;;;15.40;;
35847;SDS011;22332;51.954;20.118;2023-03-23T02:51:00;20.90;;;14.90;;
35847;SDS011;22332;51.954;20.118;2023-03-23T02:54:08;19.80;;;14.00;;
35847;SDS011;22332;51.954;20.118;2023-03-23T02:57:15;22.10;;;13.70;;
35847;SDS011;22332;51.954;20.118;2023-03-23T03:00:21;18.40;;;12.20;;
35847;SDS011;22332;51.954;20.118;2023-03-23T03:03:28;19.70;;;13.70;;
35847;SDS011;22332;51.954;20.118;2023-03-23T03:06:36;20.70;;;14.20;;
35847;SDS011;22332;51.954;20.118;2023-03-23T03:09:52;21.10;;;14.40;;
35847;SDS011;22332;51.954;20.118;2023-03-23T03:13:05;20.50;;;14.20;;
35847;SDS011;22332;51.954;20.118;2023-03-23T03:16:22;20.40;;;13.60;;
35847;SDS011;22332;51.954;20.118;2023-03-23T03:19:34;21.60;;;14.40;;
35847;SDS011;22332;51.954;20.118;2023-03-23T03:22:43;19.70;;;12.80;;
35847;SDS011;22332;51.954;20.118;2023-03-23T03:25:51;17.40;;;11.90;;
35847;SDS011;22332;51.954;20.118;2023-03-23T03:29:05;19.50;;;13.00;;
35847;SDS011;22332;51.954;20.118;2023-03-23T03:32:16;20.60;;;13.50;;
35847;SDS011;22332;51.954;20.118;2023-03-23T03:35:26;19.30;;;13.50;;
35847;SDS011;22332;51.954;20.118;2023-03-23T03:38:41;18.50;;;13.20;;
35847;SDS011;22332;51.954;20.118;2023-03-23T03:41:48;18.70;;;12.70;;
35847;SDS011;22332;51.954;20.118;2023-03-23T03:44:53;18.80;;;13.20;;
35847;SDS011;22332;51.954;20.118;2023-03-23T03:47:59;22.10;;;12.90;;
35847;SDS011;22332;51.954;20.118;2023-03-23T03:51:06;18.10;;;11.30;;
35847;SDS011;22332;51.954;20.118;2023-03-23T03:54:14;15.80;;;10.50;;
35847;SDS011;22332;51.954;20.118;2023-03-23T03:57:19;19.20;;;13.00;;
35847;SDS011;22332;51.954;20.118;2023-03-23T04:00:40;19.30;;;12.70;;
35847;SDS011;22332;51.954;20.118;2023-03-23T04:03:51;20.20;;;13.40;;
35847;SDS011;22332;51.954;20.118;2023-03-23T04:07:04;20.60;;;13.30;;
35847;SDS011;22332;51.954;20.118;2023-03-23T04:10:10;18.00;;;12.30;;
35847;SDS011;22332;51.954;20.118;2023-03-23T04:13:18;18.70;;;12.80;;
35847;SDS011;22332;51.954;20.118;2023-03-23T04:16:47;16.10;;;10.80;;
35847;SDS011;22332;51.954;20.118;2023-03-23T04:19:59;16.80;;;9.70;;
35847;SDS011;22332;51.954;20.118;2023-03-23T04:23:10;17.30;;;10.90;;
35847;SDS011;22332;51.954;20.118;2023-03-23T04:26:16;16.00;;;11.00;;
35847;SDS011;22332;51.954;20.118;2023-03-23T04:29:25;18.00;;;12.30;;
35847;SDS011;22332;51.954;20.118;2023-03-23T04:32:50;17.80;;;12.20;;
35847;SDS011;22332;51.954;20.118;2023-03-23T04:35:59;18.00;;;11.70;;
35847;SDS011;22332;51.954;20.118;2023-03-23T04:39:13;16.00;;;11.20;;
35847;SDS011;22332;51.954;20.118;2023-03-23T04:42:19;18.00;;;12.40;;
35847;SDS011;22332;51.954;20.118;2023-03-23T04:45:47;17.00;;;10.30;;
35847;SDS011;22332;51.954;20.118;2023-03-23T04:48:58;14.30;;;9.60;;
35847;SDS011;22332;51.954;20.118;2023-03-23T04:52:08;14.90;;;10.30;;
35847;SDS011;22332;51.954;20.118;2023-03-23T04:55:25;16.00;;;10.80;;
35847;SDS011;22332;51.954;20.118;2023-03-23T04:58:33;19.10;;;11.50;;
35847;SDS011;22332;51.954;20.118;2023-03-23T05:01:55;16.30;;;11.00;;
35847;SDS011;22332;51.954;20.118;2023-03-23T05:05:01;15.70;;;11.10;;
35847;SDS011;22332;51.954;20.118;2023-03-23T05:08:08;15.90;;;11.20;;
35847;SDS011;22332;51.954;20.118;2023-03-23T05:11:16;15.20;;;10.40;;
35847;SDS011;22332;51.954;20.118;2023-03-23T05:14:21;13.60;;;9.50;;
35847;SDS011;22332;51.954;20.118;2023-03-23T05:17:37;14.90;;;10.10;;
35847;SDS011;22332;51.954;20.118;2023-03-23T05:20:50;13.70;;;9.80;;
35847;SDS011;22332;51.954;20.118;2023-03-23T05:23:59;15.10;;;10.50;;
35847;SDS011;22332;51.954;20.118;2023-03-23T05:27:05;16.70;;;10.80;;
35847;SDS011;22332;51.954;20.118;2023-03-23T05:30:11;15.40;;;11.00;;
35847;SDS011;22332;51.954;20.118;2023-03-23T05:33:19;16.00;;;11.40;;
35847;SDS011;22332;51.954;20.118;2023-03-23T05:36:36;16.50;;;11.40;;
35847;SDS011;22332;51.954;20.118;2023-03-23T05:39:46;15.40;;;10.20;;
35847;SDS011;22332;51.954;20.118;2023-03-23T05:43:12;14.00;;;9.20;;
35847;SDS011;22332;51.954;20.118;2023-03-23T05:46:24;14.40;;;10.10;;
35847;SDS011;22332;51.954;20.118;2023-03-23T05:49:33;15.70;;;9.50;;
35847;SDS011;22332;51.954;20.118;2023-03-23T05:52:40;13.30;;;10.10;;
35847;SDS011;22332;51.954;20.118;2023-03-23T05:55:48;17.90;;;11.50;;
35847;SDS011;22332;51.954;20.118;2023-03-23T05:59:09;16.40;;;10.90;;
35847;SDS011;22332;51.954;20.118;2023-03-23T06:02:16;14.90;;;11.00;;
35847;SDS011;22332;51.954;20.118;2023-03-23T06:05:21;14.80;;;11.00;;
35847;SDS011;22332;51.954;20.118;2023-03-23T06:08:30;14.80;;;11.10;;
35847;SDS011;22332;51.954;20.118;2023-03-23T06:11:36;14.90;;;11.30;;
35847;SDS011;22332;51.954;20.118;2023-03-23T06:14:57;14.10;;;9.90;;
35847;SDS011;22332;51.954;20.118;2023-03-23T06:18:18;14.90;;;10.70;;
35847;SDS011;22332;51.954;20.118;2023-03-23T06:21:44;17.80;;;12.50;;
35847;SDS011;22332;51.954;20.118;2023-03-23T06:24:58;19.10;;;11.90;;
35847;SDS011;22332;51.954;20.118;2023-03-23T06:28:11;17.30;;;12.60;;
35847;SDS011;22332;51.954;20.118;2023-03-23T06:31:19;20.10;;;12.80;;
35847;SDS011;22332;51.954;20.118;2023-03-23T06:34:26;17.70;;;13.10;;
35847;SDS011;22332;51.954;20.118;2023-03-23T06:37:51;16.10;;;12.30;;
35847;SDS011;22332;51.954;20.118;2023-03-23T06:41:08;20.20;;;12.60;;
35847;SDS011;22332;51.954;20.118;2023-03-23T06:44:14;16.30;;;12.10;;
35847;SDS011;22332;51.954;20.118;2023-03-23T06:47:20;16.90;;;11.10;;
35847;SDS011;22332;51.954;20.118;2023-03-23T06:50:26;15.00;;;11.60;;
35847;SDS011;22332;51.954;20.118;2023-03-23T06:53:33;15.80;;;11.80;;
35847;SDS011;22332;51.954;20.118;2023-03-23T06:56:39;16.30;;;11.40;;
35847;SDS011;22332;51.954;20.118;2023-03-23T06:59:45;16.50;;;12.00;;
35847;SDS011;22332;51.954;20.118;2023-03-23T07:02:51;18.40;;;12.70;;
35847;SDS011;22332;51.954;20.118;2023-03-23T07:05:57;16.90;;;11.50;;
35847;SDS011;22332;51.954;20.118;2023-03-23T07:09:05;18.00;;;11.50;;
35847;SDS011;22332;51.954;20.118;2023-03-23T07:12:11;16.90;;;12.40;;
35847;SDS011;22332;51.954;20.118;2023-03-23T07:15:21;15.90;;;12.30;;
35847;SDS011;22332;51.954;20.118;2023-03-23T07:18:29;18.10;;;12.10;;
35847;SDS011;22332;51.954;20.118;2023-03-23T07:21:35;16.60;;;11.10;;
35847;SDS011;22332;51.954;20.118;2023-03-23T07:24:41;18.50;;;12.10;;
35847;SDS011;22332;51.954;20.118;2023-03-23T07:28:03;17.30;;;12.00;;
35847;SDS011;22332;51.954;20.118;2023-03-23T07:31:09;18.50;;;12.70;;
35847;SDS011;22332;51.954;20.118;2023-03-23T07:34:14;16.90;;;11.80;;
35847;SDS011;22332;51.954;20.118;2023-03-23T07:37:50;17.20;;;12.10;;
35847;SDS011;22332;51.954;20.118;2023-03-23T07:40:56;15.50;;;12.00;;
35847;SDS011;22332;51.954;20.118;2023-03-23T07:44:02;14.70;;;11.70;;
35847;SDS011;22332;51.954;20.118;2023-03-23T07:47:12;14.10;;;11.70;;
35847;SDS011;22332;51.954;20.118;2023-03-23T07:50:18;17.40;;;11.70;;
35847;SDS011;22332;51.954;20.118;2023-03-23T07:53:27;13.50;;;10.70;;
35847;SDS011;22332;51.954;20.118;2023-03-23T07:56:43;17.10;;;13.40;;
35847;SDS011;22332;51.954;20.118;2023-03-23T07:59:57;14.20;;;11.20;;
35847;SDS011;22332;51.954;20.118;2023-03-23T08:03:04;17.00;;;12.20;;
35847;SDS011;22332;51.954;20.118;2023-03-23T08:06:31;15.50;;;11.90;;
35847;SDS011;22332;51.954;20.118;2023-03-23T08:10:00;17.20;;;11.90;;
35847;SDS011;22332;51.954;20.118;2023-03-23T08:13:30;16.30;;;12.70;;
35847;SDS011;22332;51.954;20.118;2023-03-23T08:16:57;18.40;;;11.80;;
35847;SDS011;22332;51.954;20.118;2023-03-23T08:20:23;15.60;;;10.80;;
35847;SDS011;22332;51.954;20.118;2023-03-23T08:24:05;12.30;;;9.40;;
35847;SDS011;22332;51.954;20.118;2023-03-23T08:27:33;13.90;;;10.40;;
35847;SDS011;22332;51.954;20.118;2023-03-23T08:30:51;13.70;;;9.60;;
35847;SDS011;22332;51.954;20.118;2023-03-23T08:34:16;12.90;;;9.80;;
35847;SDS011;22332;51.954;20.118;2023-03-23T08:37:37;10.70;;;9.00;;
35847;SDS011;22332;51.954;20.118;2023-03-23T08:41:03;12.40;;;9.80;;
35847;SDS011;22332;51.954;20.118;2023-03-23T08:44:46;10.50;;;8.50;;
35847;SDS011;22332;51.954;20.118;2023-03-23T08:48:12;12.10;;;9.10;;
35847;SDS011;22332;51.954;20.118;2023-03-23T08:51:33;11.90;;;9.10;;
35847;SDS011;22332;51.954;20.118;2023-03-23T08:54:45;10.70;;;9.10;;
35847;SDS011;22332;51.954;20.118;2023-03-23T08:58:01;11.60;;;9.10;;
35847;SDS011;22332;51.954;20.118;2023-03-23T09:01:26;13.50;;;8.70;;
35847;SDS011;22332;51.954;20.118;2023-03-23T09:04:58;11.70;;;9.10;;
35847;SDS011;22332;51.954;20.118;2023-03-23T09:08:10;12.70;;;9.20;;
35847;SDS011;22332;51.954;20.118;2023-03-23T09:11:16;12.00;;;8.80;;
35847;SDS011;22332;51.954;20.118;2023-03-23T09:14:22;11.00;;;9.20;;
35847;SDS011;22332;51.954;20.118;2023-03-23T09:17:28;10.20;;;8.80;;
35847;SDS011;22332;51.954;20.118;2023-03-23T09:20:34;9.90;;;8.30;;
35847;SDS011;22332;51.954;20.118;2023-03-23T09:23:40;11.10;;;8.60;;
35847;SDS011;22332;51.954;20.118;2023-03-23T09:26:47;11.70;;;8.10;;
35847;SDS011;22332;51.954;20.118;2023-03-23T09:29:53;10.60;;;8.40;;
35847;SDS011;22332;51.954;20.118;2023-03-23T09:32:59;10.00;;;8.20;;
35847;SDS011;22332;51.954;20.118;2023-03-23T09:36:06;10.00;;;7.70;;
35847;SDS011;22332;51.954;20.118;2023-03-23T09:39:15;10.30;;;8.30;;
35847;SDS011;22332;51.954;20.118;2023-03-23T09:42:26;12.20;;;8.40;;
35847;SDS011;22332;51.954;20.118;2023-03-23T09:45:43;9.10;;;8.00;;
35847;SDS011;22332;51.954;20.118;2023-03-23T09:48:56;9.20;;;7.40;;
35847;SDS011;22332;51.954;20.118;2023-03-23T09:52:05;8.20;;;7.10;;
35847;SDS011;22332;51.954;20.118;2023-03-23T09:55:18;7.70;;;6.90;;
35847;SDS011;22332;51.954;20.118;2023-03-23T09:58:26;10.30;;;7.50;;
35847;SDS011;22332;51.954;20.118;2023-03-23T10:01:35;7.90;;;6.80;;
35847;SDS011;22332;51.954;20.118;2023-03-23T10:04:47;8.10;;;6.40;;
35847;SDS011;22332;51.954;20.118;2023-03-23T10:07:54;6.80;;;6.10;;
35847;SDS011;22332;51.954;20.118;2023-03-23T10:11:00;8.40;;;6.10;;
35847;SDS011;22332;51.954;20.118;2023-03-23T10:14:12;7.10;;;5.90;;
35847;SDS011;22332;51.954;20.118;2023-03-23T10:17:30;9.20;;;6.30;;
35847;SDS011;22332;51.954;20.118;2023-03-23T10:20:42;9.20;;;5.40;;
35847;SDS011;22332;51.954;20.118;2023-03-23T10:23:54;7.40;;;5.20;;
35847;SDS011;22332;51.954;20.118;2023-03-23T10:27:05;6.30;;;5.00;;
35847;SDS011;22332;51.954;20.118;2023-03-23T10:30:19;7.30;;;5.00;;
35847;SDS011;22332;51.954;20.118;2023-03-23T10:33:30;5.60;;;4.50;;
35847;SDS011;22332;51.954;20.118;2023-03-23T10:36:49;6.60;;;4.70;;
35847;SDS011;22332;51.954;20.118;2023-03-23T10:40:00;5.80;;;4.80;;
35847;SDS011;22332;51.954;20.118;2023-03-23T10:46:19;5.20;;;4.20;;
35847;SDS011;22332;51.954;20.118;2023-03-23T10:49:34;5.60;;;4.60;;
35847;SDS011;22332;51.954;20.118;2023-03-23T10:52:44;5.50;;;4.50;;
35847;SDS011;22332;51.954;20.118;2023-03-23T10:55:50;5.10;;;4.30;;
35847;SDS011;22332;51.954;20.118;2023-03-23T10:58:57;4.90;;;4.10;;
35847;SDS011;22332;51.954;20.118;2023-03-23T11:02:03;5.30;;;3.80;;
35847;SDS011;22332;51.954;20.118;2023-03-23T11:05:27;5.30;;;4.20;;
35847;SDS011;22332;51.954;20.118;2023-03-23T11:08:48;4.10;;;3.50;;
35847;SDS011;22332;51.954;20.118;2023-03-23T11:11:56;6.90;;;3.90;;
35847;SDS011;22332;51.954;20.118;2023-03-23T11:15:09;3.70;;;3.20;;
35847;SDS011;22332;51.954;20.118;2023-03-23T11:18:27;5.90;;;3.50;;
35847;SDS011;22332;51.954;20.118;2023-03-23T11:21:40;5.20;;;3.70;;
35847;SDS011;22332;51.954;20.118;2023-03-23T11:24:55;5.00;;;3.50;;
35847;SDS011;22332;51.954;20.118;2023-03-23T11:28:04;5.30;;;3.60;;
35847;SDS011;22332;51.954;20.118;2023-03-23T11:31:11;4.60;;;3.70;;
35847;SDS011;22332;51.954;20.118;2023-03-23T11:34:19;5.80;;;3.80;;
35847;SDS011;22332;51.954;20.118;2023-03-23T11:37:31;5.50;;;3.50;;
35847;SDS011;22332;51.954;20.118;2023-03-23T11:40:43;5.10;;;3.30;;
35847;SDS011;22332;51.954;20.118;2023-03-23T11:43:52;4.50;;;2.90;;
35847;SDS011;22332;51.954;20.118;2023-03-23T11:47:01;4.40;;;3.10;;
35847;SDS011;22332;51.954;20.118;2023-03-23T11:50:10;4.20;;;2.60;;
35847;SDS011;22332;51.954;20.118;2023-03-23T11:53:30;3.20;;;2.40;;
35847;SDS011;22332;51.954;20.118;2023-03-23T11:56:43;5.40;;;3.40;;
35847;SDS011;22332;51.954;20.118;2023-03-23T11:59:50;3.80;;;2.70;;
35847;SDS011;22332;51.954;20.118;2023-03-23T12:02:56;4.50;;;2.50;;
35847;SDS011;22332;51.954;20.118;2023-03-23T12:06:30;4.40;;;2.80;;
35847;SDS011;22332;51.954;20.118;2023-03-23T12:09:46;3.10;;;2.50;;
35847;SDS011;22332;51.954;20.118;2023-03-23T12:12:59;4.10;;;2.70;;
35847;SDS011;22332;51.954;20.118;2023-03-23T12:16:17;3.80;;;2.70;;
35847;SDS011;22332;51.954;20.118;2023-03-23T12:19:36;4.40;;;2.40;;
35847;SDS011;22332;51.954;20.118;2023-03-23T12:22:53;4.80;;;3.10;;
35847;SDS011;22332;51.954;20.118;2023-03-23T12:26:18;8.10;;;3.60;;
35847;SDS011;22332;51.954;20.118;2023-03-23T12:29:39;3.50;;;2.80;;
35847;SDS011;22332;51.954;20.118;2023-03-23T12:33:01;5.20;;;2.70;;
35847;SDS011;22332;51.954;20.118;2023-03-23T12:36:32;3.70;;;2.90;;
35847;SDS011;22332;51.954;20.118;2023-03-23T12:39:50;7.10;;;3.10;;
35847;SDS011;22332;51.954;20.118;2023-03-23T12:43:18;4.50;;;3.40;;
35847;SDS011;22332;51.954;20.118;2023-03-23T12:50:09;4.30;;;3.10;;
35847;SDS011;22332;51.954;20.118;2023-03-23T12:53:21;4.50;;;3.20;;
35847;SDS011;22332;51.954;20.118;2023-03-23T12:56:33;6.70;;;3.40;;
35847;SDS011;22332;51.954;20.118;2023-03-23T12:59:44;4.20;;;3.20;;
35847;SDS011;22332;51.954;20.118;2023-03-23T13:02:55;4.00;;;2.90;;
35847;SDS011;22332;51.954;20.118;2023-03-23T13:09:13;3.80;;;2.90;;
35847;SDS011;22332;51.954;20.118;2023-03-23T13:12:23;3.60;;;2.70;;
35847;SDS011;22332;51.954;20.118;2023-03-23T13:15:33;4.50;;;3.00;;
35847;SDS011;22332;51.954;20.118;2023-03-23T13:18:49;6.60;;;3.20;;
35847;SDS011;22332;51.954;20.118;2023-03-23T13:22:07;5.00;;;3.10;;
35847;SDS011;22332;51.954;20.118;2023-03-23T13:25:19;5.90;;;3.70;;
35847;SDS011;22332;51.954;20.118;2023-03-23T13:28:47;5.00;;;3.70;;
35847;SDS011;22332;51.954;20.118;2023-03-23T13:32:10;4.10;;;2.80;;
35847;SDS011;22332;51.954;20.118;2023-03-23T13:35:19;3.40;;;3.10;;
35847;SDS011;22332;51.954;20.118;2023-03-23T13:38:26;4.90;;;3.40;;
35847;SDS011;22332;51.954;20.118;2023-03-23T13:41:33;4.40;;;3.20;;
35847;SDS011;22332;51.954;20.118;2023-03-23T13:45:04;3.40;;;3.00;;
35847;SDS011;22332;51.954;20.118;2023-03-23T13:48:23;4.10;;;3.10;;
35847;SDS011;22332;51.954;20.118;2023-03-23T13:51:34;3.70;;;3.00;;
35847;SDS011;22332;51.954;20.118;2023-03-23T13:55:08;3.90;;;3.20;;
35847;SDS011;22332;51.954;20.118;2023-03-23T13:58:25;4.80;;;2.90;;
35847;SDS011;22332;51.954;20.118;2023-03-23T14:01:32;4.60;;;3.20;;
35847;SDS011;22332;51.954;20.118;2023-03-23T14:04:42;4.40;;;3.40;;
35847;SDS011;22332;51.954;20.118;2023-03-23T14:07:54;4.70;;;3.60;;
35847;SDS011;22332;51.954;20.118;2023-03-23T14:11:09;5.50;;;3.70;;
35847;SDS011;22332;51.954;20.118;2023-03-23T14:14:20;5.00;;;3.40;;
35847;SDS011;22332;51.954;20.118;2023-03-23T14:17:39;5.30;;;3.60;;
35847;SDS011;22332;51.954;20.118;2023-03-23T14:20:46;4.80;;;3.30;;
35847;SDS011;22332;51.954;20.118;2023-03-23T14:23:52;5.20;;;3.20;;
35847;SDS011;22332;51.954;20.118;2023-03-23T14:27:07;5.10;;;3.30;;
35847;SDS011;22332;51.954;20.118;2023-03-23T14:30:15;11.80;;;7.90;;
35847;SDS011;22332;51.954;20.118;2023-03-23T14:33:22;25.30;;;13.70;;
35847;SDS011;22332;51.954;20.118;2023-03-23T14:36:31;186.30;;;72.80;;
35847;SDS011;22332;51.954;20.118;2023-03-23T14:39:39;93.00;;;36.80;;
35847;SDS011;22332;51.954;20.118;2023-03-23T14:42:49;53.80;;;20.90;;
35847;SDS011;22332;51.954;20.118;2023-03-23T14:45:58;56.60;;;21.50;;
35847;SDS011;22332;51.954;20.118;2023-03-23T14:49:05;156.30;;;47.90;;
35847;SDS011;22332;51.954;20.118;2023-03-23T14:52:12;153.80;;;50.50;;
35847;SDS011;22332;51.954;20.118;2023-03-23T14:55:19;94.50;;;30.40;;
35847;SDS011;22332;51.954;20.118;2023-03-23T14:58:28;140.70;;;49.70;;
35847;SDS011;22332;51.954;20.118;2023-03-23T15:01:35;124.50;;;65.70;;
35847;SDS011;22332;51.954;20.118;2023-03-23T15:04:43;133.60;;;83.00;;
35847;SDS011;22332;51.954;20.118;2023-03-23T15:07:54;65.00;;;37.80;;
35847;SDS011;22332;51.954;20.118;2023-03-23T15:11:05;169.50;;;92.40;;
35847;SDS011;22332;51.954;20.118;2023-03-23T15:14:17;85.80;;;43.90;;
35847;SDS011;22332;51.954;20.118;2023-03-23T15:17:26;44.20;;;30.10;;
35847;SDS011;22332;51.954;20.118;2023-03-23T15:20:45;212.30;;;129.30;;
35847;SDS011;22332;51.954;20.118;2023-03-23T15:23:52;235.80;;;113.20;;
35847;SDS011;22332;51.954;20.118;2023-03-23T15:27:10;453.50;;;207.80;;
35847;SDS011;22332;51.954;20.118;2023-03-23T15:30:27;182.40;;;78.20;;
35847;SDS011;22332;51.954;20.118;2023-03-23T15:33:35;244.00;;;113.00;;
35847;SDS011;22332;51.954;20.118;2023-03-23T15:36:43;231.70;;;112.40;;
35847;SDS011;22332;51.954;20.118;2023-03-23T15:39:49;107.80;;;55.70;;
35847;SDS011;22332;51.954;20.118;2023-03-23T15:43:06;96.30;;;61.40;;
35847;SDS011;22332;51.954;20.118;2023-03-23T15:46:23;24.90;;;15.80;;
35847;SDS011;22332;51.954;20.118;2023-03-23T15:49:29;45.10;;;33.20;;
35847;SDS011;22332;51.954;20.118;2023-03-23T15:52:35;13.40;;;9.60;;
35847;SDS011;22332;51.954;20.118;2023-03-23T15:55:41;7.60;;;5.40;;
35847;SDS011;22332;51.954;20.118;2023-03-23T15:58:47;5.30;;;4.10;;
35847;SDS011;22332;51.954;20.118;2023-03-23T16:01:53;5.90;;;4.10;;
35847;SDS011;22332;51.954;20.118;2023-03-23T16:04:58;424.00;;;188.60;;
35847;SDS011;22332;51.954;20.118;2023-03-23T16:08:07;307.00;;;119.10;;
35847;SDS011;22332;51.954;20.118;2023-03-23T16:11:14;149.00;;;64.40;;
35847;SDS011;22332;51.954;20.118;2023-03-23T16:14:21;344.90;;;153.60;;
35847;SDS011;22332;51.954;20.118;2023-03-23T16:17:26;335.80;;;157.50;;
35847;SDS011;22332;51.954;20.118;2023-03-23T16:20:32;269.70;;;119.40;;
35847;SDS011;22332;51.954;20.118;2023-03-23T16:23:38;211.60;;;96.30;;
35847;SDS011;22332;51.954;20.118;2023-03-23T16:26:46;282.30;;;133.40;;
35847;SDS011;22332;51.954;20.118;2023-03-23T16:29:51;232.90;;;115.30;;
35847;SDS011;22332;51.954;20.118;2023-03-23T16:32:57;310.40;;;159.70;;
35847;SDS011;22332;51.954;20.118;2023-03-23T16:36:03;362.20;;;201.50;;
35847;SDS011;22332;51.954;20.118;2023-03-23T16:39:10;268.50;;;133.20;;
35847;SDS011;22332;51.954;20.118;2023-03-23T16:42:17;293.20;;;117.70;;
35847;SDS011;22332;51.954;20.118;2023-03-23T16:45:23;124.60;;;53.90;;
35847;SDS011;22332;51.954;20.118;2023-03-23T16:48:29;101.60;;;47.10;;
35847;SDS011;22332;51.954;20.118;2023-03-23T16:51:34;347.70;;;145.40;;
35847;SDS011;22332;51.954;20.118;2023-03-23T16:54:39;425.00;;;191.40;;
35847;SDS011;22332;51.954;20.118;2023-03-23T16:57:45;212.30;;;89.10;;
35847;SDS011;22332;51.954;20.118;2023-03-23T17:00:51;118.40;;;63.50;;
35847;SDS011;22332;51.954;20.118;2023-03-23T17:03:56;38.40;;;22.10;;
35847;SDS011;22332;51.954;20.118;2023-03-23T17:07:02;18.00;;;9.90;;
35847;SDS011;22332;51.954;20.118;2023-03-23T17:10:08;23.50;;;19.50;;
35847;SDS011;22332;51.954;20.118;2023-03-23T17:13:15;123.10;;;72.20;;
35847;SDS011;22332;51.954;20.118;2023-03-23T17:16:21;172.70;;;100.60;;
35847;SDS011;22332;51.954;20.118;2023-03-23T17:19:26;65.60;;;40.30;;
35847;SDS011;22332;51.954;20.118;2023-03-23T17:22:32;45.40;;;29.50;;
35847;SDS011;22332;51.954;20.118;2023-03-23T17:25:38;57.30;;;32.20;;
35847;SDS011;22332;51.954;20.118;2023-03-23T17:28:44;36.30;;;21.70;;
35847;SDS011;22332;51.954;20.118;2023-03-23T17:31:50;66.10;;;47.00;;
35847;SDS011;22332;51.954;20.118;2023-03-23T17:34:55;72.00;;;48.20;;
35847;SDS011;22332;51.954;20.118;2023-03-23T17:38:01;65.70;;;50.50;;
35847;SDS011;22332;51.954;20.118;2023-03-23T17:41:07;34.00;;;26.50;;
35847;SDS011;22332;51.954;20.118;2023-03-23T17:44:13;66.00;;;53.00;;
35847;SDS011;22332;51.954;20.118;2023-03-23T17:47:18;19.70;;;13.10;;
35847;SDS011;22332;51.954;20.118;2023-03-23T17:50:25;9.70;;;6.80;;
35847;SDS011;22332;51.954;20.118;2023-03-23T17:53:31;51.40;;;44.90;;
35847;SDS011;22332;51.954;20.118;2023-03-23T17:56:38;39.00;;;34.70;;
35847;SDS011;22332;51.954;20.118;2023-03-23T17:59:43;26.40;;;22.80;;
35847;SDS011;22332;51.954;20.118;2023-03-23T18:02:49;60.50;;;51.40;;
35847;SDS011;22332;51.954;20.118;2023-03-23T18:05:58;97.70;;;75.80;;
35847;SDS011;22332;51.954;20.118;2023-03-23T18:09:04;73.90;;;55.70;;
35847;SDS011;22332;51.954;20.118;2023-03-23T18:12:10;43.70;;;25.90;;
35847;SDS011;22332;51.954;20.118;2023-03-23T18:15:16;20.80;;;11.40;;
35847;SDS011;22332;51.954;20.118;2023-03-23T18:18:22;57.80;;;22.40;;
35847;SDS011;22332;51.954;20.118;2023-03-23T18:21:28;18.30;;;8.30;;
35847;SDS011;22332;51.954;20.118;2023-03-23T18:24:33;22.50;;;9.50;;
35847;SDS011;22332;51.954;20.118;2023-03-23T18:27:39;101.20;;;31.50;;
35847;SDS011;22332;51.954;20.118;2023-03-23T18:30:45;70.10;;;24.70;;
35847;SDS011;22332;51.954;20.118;2023-03-23T18:33:51;86.80;;;28.90;;
35847;SDS011;22332;51.954;20.118;2023-03-23T18:36:57;86.40;;;33.70;;
35847;SDS011;22332;51.954;20.118;2023-03-23T18:40:03;147.80;;;51.10;;
35847;SDS011;22332;51.954;20.118;2023-03-23T18:43:12;208.30;;;83.50;;